Time;durP1;ratioP1;P1;durP2;ratioP2;P2;SDS_P1;SDS_P2;PMS_P1;PMS_P2;Temp;Humidity;BMP_temperature;BMP_pressure;BME280_temperature;BME280_humidity;BME280_pressure;Samples;Min_cycle;Max_cycle;Signal;HPM_P1;HPM_P2
2021/01/11 00:00:33;;;;;;;24.40;15.13;;;-5.00;97.10;;;;;;5045094;28;21020;-77
2021/01/11 00:02:59;;;;;;;24.42;15.18;;;-4.90;96.80;;;;;;5052591;28;20284;-77
2021/01/11 00:05:26;;;;;;;26.37;15.97;;;-4.90;96.30;;;;;;5048895;28;21014;-77
2021/01/11 00:07:52;;;;;;;29.57;16.97;;;-5.00;95.80;;;;;;5046898;28;20525;-77
2021/01/11 00:10:20;;;;;;;25.60;15.97;;;-4.90;99.00;;;;;;5046346;28;20485;-77
2021/01/11 00:12:47;;;;;;;27.47;17.17;;;-4.90;98.60;;;;;;5046431;28;21082;-77
2021/01/11 00:15:16;;;;;;;26.00;16.17;;;-4.80;98.00;;;;;;5047687;28;20467;-77
2021/01/11 00:17:44;;;;;;;25.03;14.13;;;-4.90;97.50;;;;;;5056442;28;20595;-77
2021/01/11 00:20:13;;;;;;;25.53;15.30;;;-5.00;96.40;;;;;;5054645;28;20527;-76
2021/01/11 00:22:43;;;;;;;25.60;15.10;;;-5.10;94.90;;;;;;5045017;28;20450;-77
2021/01/11 00:25:12;;;;;;;22.23;14.40;;;-5.20;94.30;;;;;;5044872;28;20449;-76
2021/01/11 00:27:41;;;;;;;22.73;15.23;;;-5.30;94.10;;;;;;5044892;28;20478;-76
2021/01/11 00:30:09;;;;;;;26.60;16.60;;;-5.30;95.00;;;;;;5054244;28;20977;-76
2021/01/11 00:32:36;;;;;;;28.10;16.83;;;-5.40;95.70;;;;;;5048750;28;20511;-76
2021/01/11 00:35:05;;;;;;;24.97;15.87;;;-5.30;95.60;;;;;;5064623;28;20479;-76
2021/01/11 00:37:31;;;;;;;23.73;14.57;;;-5.30;96.00;;;;;;5041596;28;20478;-76
2021/01/11 00:39:58;;;;;;;29.57;16.67;;;-5.30;96.20;;;;;;5044993;28;20458;-77
2021/01/11 00:42:31;;;;;;;22.57;13.60;;;-5.30;98.50;;;;;;5041401;28;20612;-77
2021/01/11 00:44:58;;;;;;;31.17;15.87;;;-5.30;97.90;;;;;;5047428;28;21219;-77
2021/01/11 00:47:24;;;;;;;24.63;15.32;;;-5.30;98.30;;;;;;5041907;28;21020;-77
2021/01/11 00:49:51;;;;;;;26.80;16.50;;;-5.40;97.40;;;;;;5051972;28;20769;-76
2021/01/11 00:52:20;;;;;;;26.67;14.40;;;-5.40;97.60;;;;;;5045634;28;20462;-76
2021/01/11 00:54:54;;;;;;;25.83;15.77;;;-5.40;97.40;;;;;;5046074;28;20238;-76
2021/01/11 00:57:20;;;;;;;21.60;14.65;;;-5.40;98.00;;;;;;5044657;28;20485;-76
2021/01/11 00:59:47;;;;;;;26.97;14.20;;;-5.40;97.80;;;;;;5043357;28;20199;-77
2021/01/11 01:02:14;;;;;;;22.83;14.77;;;-5.40;95.70;;;;;;5048280;28;21382;-77
2021/01/11 01:04:40;;;;;;;21.38;15.05;;;-5.40;96.60;;;;;;5048616;28;20446;-76
2021/01/11 01:07:07;;;;;;;24.03;14.60;;;-5.50;94.50;;;;;;5047657;28;20957;-77
2021/01/11 01:09:33;;;;;;;25.63;14.80;;;-5.50;95.50;;;;;;5050133;28;20553;-77
2021/01/11 01:12:00;;;;;;;25.70;15.30;;;-5.60;96.30;;;;;;5065077;28;20525;-77
2021/01/11 01:14:26;;;;;;;22.80;13.77;;;-5.70;96.70;;;;;;5072163;28;20556;-77
2021/01/11 01:16:53;;;;;;;23.13;15.50;;;-5.70;97.40;;;;;;5072940;28;20473;-77
2021/01/11 01:19:20;;;;;;;22.90;14.95;;;-5.60;99.90;;;;;;5054631;28;20555;-77
2021/01/11 01:21:47;;;;;;;20.97;13.50;;;-5.60;99.90;;;;;;5060858;28;20229;-76
2021/01/11 01:24:13;;;;;;;22.37;14.40;;;-5.60;99.90;;;;;;5049319;28;20998;-76
2021/01/11 01:26:41;;;;;;;27.50;15.60;;;-5.70;99.90;;;;;;5047604;28;20468;-77
2021/01/11 01:29:08;;;;;;;22.47;15.17;;;-5.70;99.90;;;;;;5050428;28;20941;-77
2021/01/11 01:31:34;;;;;;;23.00;14.60;;;-5.70;99.90;;;;;;5048118;28;21032;-77
2021/01/11 01:34:00;;;;;;;25.50;15.07;;;-5.80;96.50;;;;;;5053808;28;20506;-77
2021/01/11 01:36:28;;;;;;;25.50;15.80;;;-5.60;97.80;;;;;;5032507;28;20460;-77
2021/01/11 01:38:57;;;;;;;26.52;16.50;;;-5.60;95.00;;;;;;5041634;28;20453;-76
2021/01/11 01:41:24;;;;;;;23.27;14.90;;;-5.50;94.40;;;;;;5043305;28;20213;-77
2021/01/11 01:43:50;;;;;;;23.63;14.45;;;-5.60;92.60;;;;;;5053067;28;20461;-76
2021/01/11 01:46:22;;;;;;;21.07;13.83;;;-5.70;93.60;;;;;;5053965;28;20210;-78
2021/01/11 01:48:49;;;;;;;24.97;14.90;;;-5.80;93.60;;;;;;5056906;28;20450;-77
2021/01/11 01:51:17;;;;;;;25.93;15.23;;;-5.80;94.90;;;;;;5054431;28;20460;-77
2021/01/11 01:53:44;;;;;;;21.30;13.50;;;-5.70;96.80;;;;;;5049862;28;20465;-77
2021/01/11 01:56:11;;;;;;;24.33;14.63;;;-5.80;96.80;;;;;;5046337;28;20520;-77
2021/01/11 01:58:38;;;;;;;26.38;13.98;;;-5.70;99.70;;;;;;5045172;28;21042;-77
2021/01/11 02:01:06;;;;;;;25.73;15.40;;;-5.70;98.50;;;;;;5047766;28;20210;-76
2021/01/11 02:03:33;;;;;;;25.80;15.00;;;-5.80;96.00;;;;;;5063041;28;20461;-77
2021/01/11 02:06:00;;;;;;;26.37;15.30;;;-5.70;95.70;;;;;;5053539;28;20445;-76
2021/01/11 02:08:35;;;;;;;24.37;15.53;;;-5.60;95.30;;;;;;5054056;28;20491;-77
2021/01/11 02:11:27;;;;;;;29.53;14.40;;;-5.70;94.70;;;;;;5051570;28;20506;-76
2021/01/11 02:14:07;;;;;;;25.70;14.77;;;-5.60;94.90;;;;;;5056331;28;20465;-76
2021/01/11 02:16:44;;;;;;;25.60;14.30;;;-5.50;94.70;;;;;;5051150;28;20953;-76
2021/01/11 02:19:47;;;;;;;31.33;15.00;;;-5.50;93.00;;;;;;5051514;28;20940;-76
2021/01/11 02:22:20;;;;;;;31.47;15.60;;;-5.50;92.90;;;;;;5051350;28;20472;-77
2021/01/11 02:25:20;;;;;;;25.83;13.93;;;-5.60;93.10;;;;;;5051831;28;20453;-78
2021/01/11 02:27:53;;;;;;;24.57;13.67;;;-5.60;94.50;;;;;;5047816;28;20499;-77
2021/01/11 02:30:32;;;;;;;31.08;16.48;;;-5.60;94.90;;;;;;5049609;28;20457;-76
2021/01/11 02:33:04;;;;;;;29.98;14.48;;;-5.60;95.50;;;;;;5051041;28;20186;-76
2021/01/11 02:35:57;;;;;;;29.47;15.33;;;-5.60;95.50;;;;;;5047812;28;20200;-77
2021/01/11 02:38:24;;;;;;;24.00;14.60;;;-5.70;94.30;;;;;;5044739;28;20472;-78
2021/01/11 02:40:51;;;;;;;21.33;13.07;;;-5.60;99.90;;;;;;5064306;28;20624;-78
2021/01/11 02:43:20;;;;;;;29.83;14.83;;;-5.70;97.20;;;;;;5061974;28;20461;-78
2021/01/11 02:45:48;;;;;;;28.40;15.00;;;-5.70;98.00;;;;;;5050915;28;20816;-77
2021/01/11 02:48:22;;;;;;;25.37;13.47;;;-5.70;99.90;;;;;;5049214;28;20469;-77
2021/01/11 02:51:02;;;;;;;26.50;13.87;;;-5.80;98.20;;;;;;5053391;28;20504;-76
2021/01/11 02:53:46;;;;;;;26.02;14.73;;;-5.90;97.60;;;;;;5065920;28;20466;-77
2021/01/11 02:56:19;;;;;;;23.80;13.50;;;-6.00;97.80;;;;;;5069424;28;20987;-78
2021/01/11 02:59:09;;;;;;;20.90;13.10;;;-5.90;99.60;;;;;;5064822;28;20767;-78
2021/01/11 03:01:44;;;;;;;19.67;12.63;;;-5.90;99.50;;;;;;5047400;28;20449;-78
2021/01/11 03:04:20;;;;;;;25.57;14.10;;;-5.90;97.00;;;;;;5060713;28;20445;-78
2021/01/11 03:06:56;;;;;;;26.97;14.57;;;-6.00;98.60;;;;;;5073244;28;20441;-78
2021/01/11 03:09:23;;;;;;;26.07;13.57;;;-6.00;98.60;;;;;;5066781;28;20962;-79
2021/01/11 03:11:50;;;;;;;25.40;13.87;;;-5.90;99.90;;;;;;5054031;28;20465;-76
2021/01/11 03:14:19;;;;;;;25.37;14.20;;;-5.80;99.90;;;;;;5052491;28;21110;-77
2021/01/11 03:16:48;;;;;;;26.27;14.77;;;-6.00;99.70;;;;;;5054413;28;20450;-77
2021/01/11 03:19:15;;;;;;;28.53;14.87;;;-6.00;98.20;;;;;;5060714;28;20457;-77
2021/01/11 03:21:41;;;;;;;37.60;15.10;;;-6.10;98.90;;;;;;5070909;28;20458;-77
2021/01/11 03:24:08;;;;;;;24.63;13.90;;;-6.10;99.90;;;;;;5072456;28;20486;-77
2021/01/11 03:26:35;;;;;;;24.17;15.00;;;-6.00;99.90;;;;;;5049950;28;20248;-77
2021/01/11 03:29:02;;;;;;;25.55;14.70;;;-5.70;99.90;;;;;;5053563;28;20457;-78
2021/01/11 03:31:31;;;;;;;23.93;15.07;;;-5.90;99.90;;;;;;5049087;28;20214;-78
2021/01/11 03:33:58;;;;;;;24.30;14.10;;;-6.10;99.90;;;;;;5048836;28;20528;-77
2021/01/11 03:36:25;;;;;;;27.48;14.38;;;-6.00;99.90;;;;;;5051709;28;20461;-77
2021/01/11 03:38:52;;;;;;;31.77;14.70;;;-5.90;99.90;;;;;;5048552;28;20306;-77
2021/01/11 03:41:21;;;;;;;27.30;14.70;;;-5.90;99.90;;;;;;5045219;28;20450;-77
2021/01/11 03:43:50;;;;;;;29.43;16.20;;;-6.10;99.90;;;;;;5051517;28;20448;-77
2021/01/11 03:46:18;;;;;;;26.30;14.97;;;-6.20;99.90;;;;;;5050719;28;20477;-77
2021/01/11 03:48:45;;;;;;;31.60;16.00;;;-6.20;99.90;;;;;;5045515;28;20445;-77
2021/01/11 03:51:16;;;;;;;31.58;16.15;;;-6.20;99.90;;;;;;5049705;28;20449;-77
2021/01/11 03:53:45;;;;;;;30.53;16.77;;;-6.10;99.90;;;;;;5047817;28;20199;-76
2021/01/11 03:56:12;;;;;;;30.00;15.70;;;-6.10;99.90;;;;;;5049403;28;20466;-78
2021/01/11 03:58:41;;;;;;;29.73;15.00;;;-5.90;99.90;;;;;;5050201;28;20480;-78
2021/01/11 04:01:11;;;;;;;33.67;16.40;;;-5.80;99.90;;;;;;5049697;28;20465;-77
2021/01/11 04:03:39;;;;;;;23.63;15.90;;;-5.90;99.90;;;;;;5049424;28;20452;-77
2021/01/11 04:06:07;;;;;;;34.43;16.17;;;-6.00;99.90;;;;;;5056093;28;20446;-78
2021/01/11 04:08:34;;;;;;;32.03;16.20;;;-6.00;99.90;;;;;;5051241;28;20449;-77
2021/01/11 04:11:01;;;;;;;32.10;16.17;;;-5.90;99.90;;;;;;5049365;28;20312;-78
2021/01/11 04:13:27;;;;;;;27.17;15.80;;;-5.80;99.90;;;;;;5054128;28;20342;-78
2021/01/11 04:15:54;;;;;;;27.17;16.53;;;-5.70;99.90;;;;;;5055069;28;20473;-78
2021/01/11 04:18:20;;;;;;;32.67;16.47;;;-5.70;99.90;;;;;;5051954;28;20473;-78
2021/01/11 04:20:47;;;;;;;31.17;17.33;;;-5.60;99.90;;;;;;5045643;28;20470;-79
2021/01/11 04:23:19;;;;;;;26.47;16.13;;;-5.60;99.90;;;;;;5052413;28;20889;-78
2021/01/11 04:25:46;;;;;;;30.00;16.57;;;-5.50;99.90;;;;;;5040279;28;20543;-78
2021/01/11 04:28:12;;;;;;;29.53;14.43;;;-5.40;99.90;;;;;;5046597;28;20453;-77
2021/01/11 04:30:42;;;;;;;26.20;15.70;;;-5.30;99.40;;;;;;5047969;28;20553;-77
2021/01/11 04:33:08;;;;;;;26.33;15.73;;;-5.20;98.40;;;;;;5050978;28;20632;-78
2021/01/11 04:35:35;;;;;;;27.07;16.97;;;-5.00;96.90;;;;;;5053314;28;20458;-79
2021/01/11 04:38:02;;;;;;;29.57;18.43;;;-5.10;93.50;;;;;;5055001;28;20528;-78
2021/01/11 04:40:28;;;;;;;28.37;16.50;;;-5.00;95.70;;;;;;5059175;28;20583;-79
2021/01/11 04:43:03;;;;;;;27.23;17.30;;;-4.90;95.10;;;;;;5069847;28;20454;-78
2021/01/11 04:45:31;;;;;;;33.43;17.20;;;-4.90;94.80;;;;;;5065458;28;20469;-78
2021/01/11 04:47:59;;;;;;;31.40;17.33;;;-4.90;94.10;;;;;;5052468;28;20572;-78
2021/01/11 04:50:27;;;;;;;29.77;17.10;;;-4.80;93.50;;;;;;5050338;28;20476;-78
2021/01/11 04:52:54;;;;;;;26.60;16.80;;;-4.80;92.70;;;;;;5053053;28;20446;-78
2021/01/11 04:55:22;;;;;;;27.63;16.70;;;-4.80;91.50;;;;;;5050870;28;20906;-78
2021/01/11 04:58:01;;;;;;;30.53;17.37;;;-4.80;91.40;;;;;;5047201;28;20488;-78
2021/01/11 05:00:29;;;;;;;28.33;16.37;;;-4.90;90.90;;;;;;5044063;28;20446;-78
2021/01/11 05:03:00;;;;;;;25.63;16.67;;;-4.90;90.80;;;;;;5050335;28;20457;-78
2021/01/11 05:05:28;;;;;;;29.43;17.03;;;-5.00;90.70;;;;;;5048934;28;20540;-78
2021/01/11 05:07:58;;;;;;;26.23;15.73;;;-4.90;90.50;;;;;;5044405;28;20960;-78
2021/01/11 05:10:27;;;;;;;25.53;15.67;;;-5.00;90.20;;;;;;5053261;28;20210;-78
2021/01/11 05:12:55;;;;;;;25.23;15.63;;;-5.00;89.60;;;;;;5054319;28;20472;-78
2021/01/11 05:15:24;;;;;;;29.93;15.93;;;-5.30;87.00;;;;;;5061032;28;20458;-78
2021/01/11 05:17:51;;;;;;;32.97;15.87;;;-5.30;89.90;;;;;;5047969;28;20466;-78
2021/01/11 05:20:21;;;;;;;24.67;16.00;;;-5.40;90.00;;;;;;5056530;28;20566;-78
2021/01/11 05:22:48;;;;;;;23.90;14.80;;;-5.50;90.40;;;;;;5053714;28;20232;-78
2021/01/11 05:25:17;;;;;;;22.93;15.67;;;-5.60;90.70;;;;;;5064508;28;20457;-77
2021/01/11 05:27:45;;;;;;;28.60;14.80;;;-5.60;91.10;;;;;;5069413;28;20467;-77
2021/01/11 05:30:29;;;;;;;19.80;14.87;;;-5.50;91.10;;;;;;5063674;28;20476;-78
2021/01/11 05:32:56;;;;;;;26.07;16.73;;;-5.60;91.40;;;;;;5062592;28;20442;-77
2021/01/11 05:35:23;;;;;;;29.47;17.50;;;-5.50;91.80;;;;;;5056605;28;20450;-78
2021/01/11 05:37:54;;;;;;;27.43;16.40;;;-5.50;91.90;;;;;;5055038;28;20482;-77
2021/01/11 05:40:22;;;;;;;30.97;17.43;;;-5.40;92.10;;;;;;5068376;28;20434;-77
2021/01/11 05:42:50;;;;;;;26.90;15.93;;;-5.30;92.40;;;;;;5055153;28;21278;-77
2021/01/11 05:45:21;;;;;;;25.33;15.73;;;-5.30;92.10;;;;;;5051649;28;21161;-77
2021/01/11 05:48:00;;;;;;;22.40;15.90;;;-5.30;91.30;;;;;;5052533;28;20515;-77
2021/01/11 05:50:29;;;;;;;26.47;16.13;;;-5.30;90.30;;;;;;5058078;28;21050;-77
2021/01/11 05:52:56;;;;;;;24.77;16.67;;;-5.30;89.80;;;;;;5051874;28;20641;-77
2021/01/11 05:55:28;;;;;;;22.30;15.13;;;-5.40;88.70;;;;;;5046009;28;20481;-77
2021/01/11 05:57:56;;;;;;;24.10;15.23;;;-5.50;88.30;;;;;;5048719;28;20747;-78
2021/01/11 06:00:25;;;;;;;23.27;15.90;;;-5.60;87.70;;;;;;5046448;28;20454;-79
2021/01/11 06:02:52;;;;;;;24.17;14.30;;;-5.70;86.30;;;;;;5049530;28;20446;-78
2021/01/11 06:05:20;;;;;;;23.98;14.13;;;-5.80;87.30;;;;;;5046577;28;20522;-78
2021/01/11 06:07:50;;;;;;;22.90;14.53;;;-5.80;88.80;;;;;;5051082;28;20199;-78
2021/01/11 06:10:18;;;;;;;28.27;18.37;;;-5.90;89.40;;;;;;5046311;28;20480;-78
2021/01/11 06:12:48;;;;;;;28.57;16.10;;;-5.90;90.30;;;;;;5053923;28;20583;-78
2021/01/11 06:15:17;;;;;;;26.30;17.20;;;-5.90;91.00;;;;;;5047352;28;21085;-78
2021/01/11 06:17:45;;;;;;;26.60;16.65;;;-6.00;92.60;;;;;;5044703;28;21242;-78
2021/01/11 06:20:17;;;;;;;22.27;16.38;;;-6.00;93.40;;;;;;5047648;28;20227;-78
2021/01/11 06:23:27;;;;;;;24.23;15.67;;;-6.00;93.80;;;;;;5045786;28;20202;-78
2021/01/11 06:25:53;;;;;;;22.30;15.57;;;-5.90;93.10;;;;;;5044744;28;20458;-78
2021/01/11 06:28:30;;;;;;;25.20;15.38;;;-5.90;93.20;;;;;;5043193;28;20445;-78
2021/01/11 06:31:12;;;;;;;26.70;16.40;;;-5.90;93.10;;;;;;5047453;28;20225;-76
2021/01/11 06:33:40;;;;;;;25.55;16.20;;;-6.00;93.70;;;;;;5054535;28;20451;-78
2021/01/11 06:36:24;;;;;;;25.77;16.33;;;-6.00;94.00;;;;;;5067689;28;20290;-81
2021/01/11 06:38:54;;;;;;;34.30;17.50;;;-6.00;94.90;;;;;;5067991;28;20206;-77
2021/01/11 06:41:22;;;;;;;26.10;16.97;;;-5.90;95.30;;;;;;5054714;28;20473;-79
2021/01/11 06:43:50;;;;;;;29.23;17.15;;;-5.90;96.20;;;;;;5056459;28;20481;-80
2021/01/11 06:46:47;;;;;;;27.40;16.17;;;-5.90;96.50;;;;;;5058375;28;20269;-81
2021/01/11 06:49:30;;;;;;;29.40;17.40;;;-5.80;96.30;;;;;;5051233;28;20441;-80
2021/01/11 06:52:08;;;;;;;30.03;17.30;;;-5.70;95.20;;;;;;5065272;28;20452;-81
2021/01/11 06:54:41;;;;;;;34.83;17.60;;;-5.60;93.50;;;;;;5053634;28;20446;-73
2021/01/11 06:57:11;;;;;;;34.40;17.77;;;-5.70;91.80;;;;;;5041893;28;20506;-71
2021/01/11 06:59:39;;;;;;;33.13;17.47;;;-5.60;93.00;;;;;;5043361;28;20550;-71
2021/01/11 07:02:21;;;;;;;33.33;18.83;;;-5.70;90.80;;;;;;5046650;28;20521;-71
2021/01/11 07:04:49;;;;;;;41.70;21.60;;;-5.50;92.80;;;;;;5043972;28;21466;-70
2021/01/11 07:07:23;;;;;;;34.33;19.10;;;-5.40;91.80;;;;;;5044736;28;20449;-72
2021/01/11 07:09:53;;;;;;;37.07;19.73;;;-5.30;91.40;;;;;;5039524;28;20502;-72
2021/01/11 07:12:20;;;;;;;36.40;18.93;;;-5.40;91.30;;;;;;5046412;28;20539;-71
2021/01/11 07:14:55;;;;;;;40.77;21.50;;;-5.30;92.00;;;;;;5042463;28;20448;-71
2021/01/11 07:17:39;;;;;;;40.67;20.93;;;-5.20;91.80;;;;;;5038036;28;20495;-72
2021/01/11 07:20:08;;;;;;;37.20;20.50;;;-5.20;92.10;;;;;;5047454;28;21318;-71
2021/01/11 07:22:36;;;;;;;46.43;22.50;;;-5.00;92.00;;;;;;5042578;28;20484;-71
2021/01/11 07:25:17;;;;;;;36.20;20.00;;;-4.90;91.20;;;;;;5045697;28;20506;-72
2021/01/11 07:27:43;;;;;;;43.03;19.10;;;-4.90;90.90;;;;;;5044071;28;20453;-72
2021/01/11 07:30:11;;;;;;;34.63;18.43;;;-4.90;90.20;;;;;;5042784;28;20859;-72
2021/01/11 07:32:37;;;;;;;39.10;20.07;;;-4.90;88.30;;;;;;5044675;28;21659;-72
2021/01/11 07:35:04;;;;;;;45.50;21.23;;;-4.80;90.00;;;;;;5049621;28;20460;-74
2021/01/11 07:37:32;;;;;;;38.53;19.30;;;-4.70;89.30;;;;;;5054925;28;20556;-73
2021/01/11 07:40:05;;;;;;;41.17;21.80;;;-4.60;88.90;;;;;;5050483;28;20792;-77
2021/01/11 07:42:33;;;;;;;40.80;24.90;;;-4.70;86.10;;;;;;5051337;28;20455;-78
2021/01/11 07:45:10;;;;;;;33.63;19.70;;;-4.70;85.90;;;;;;5047121;28;20480;-77
2021/01/11 07:47:37;;;;;;;32.13;19.20;;;-4.60;86.50;;;;;;5050992;28;20454;-78
2021/01/11 07:50:08;;;;;;;39.27;21.67;;;-4.40;89.20;;;;;;5032572;28;20485;-78
2021/01/11 07:52:34;;;;;;;42.80;21.53;;;-4.40;86.60;;;;;;5048257;28;20453;-77
2021/01/11 07:55:05;;;;;;;37.33;20.47;;;-4.30;87.80;;;;;;5053752;28;20967;-78
2021/01/11 07:57:42;;;;;;;43.10;22.70;;;-4.30;84.30;;;;;;5060559;28;20466;-78
2021/01/11 08:00:11;;;;;;;37.43;20.93;;;-4.40;82.70;;;;;;5049482;28;20488;-77
2021/01/11 08:02:38;;;;;;;42.73;22.50;;;-4.40;82.00;;;;;;5054297;28;20980;-77
2021/01/11 08:05:05;;;;;;;40.97;20.13;;;-4.40;82.10;;;;;;5044338;28;21185;-73
2021/01/11 08:07:33;;;;;;;40.43;19.20;;;-4.60;79.60;;;;;;5046646;28;20448;-74
2021/01/11 08:10:01;;;;;;;31.17;21.10;;;-4.80;80.20;;;;;;5049923;28;20485;-74
2021/01/11 08:12:29;;;;;;;34.23;19.37;;;-4.60;82.30;;;;;;5047697;28;20572;-72
2021/01/11 08:15:02;;;;;;;36.33;19.80;;;-4.40;79.90;;;;;;5045124;28;20454;-74
2021/01/11 08:17:31;;;;;;;42.83;21.30;;;-4.40;80.00;;;;;;5039560;28;20461;-73
2021/01/11 08:19:59;;;;;;;33.93;20.50;;;-4.10;80.30;;;;;;5039291;28;20472;-73
2021/01/11 08:22:27;;;;;;;33.30;19.47;;;-4.10;78.80;;;;;;5049021;28;21284;-73
2021/01/11 08:24:57;;;;;;;37.23;19.70;;;-4.10;78.00;;;;;;5053446;28;20448;-73
2021/01/11 08:27:28;;;;;;;35.80;19.57;;;-4.00;78.10;;;;;;5046864;28;20456;-73
2021/01/11 08:29:55;;;;;;;34.13;22.40;;;-4.10;77.20;;;;;;5044064;28;20970;-75
2021/01/11 08:32:23;;;;;;;33.43;19.53;;;-3.90;77.40;;;;;;5043393;28;20453;-74
2021/01/11 08:34:50;;;;;;;41.50;21.50;;;-3.90;77.00;;;;;;5049262;28;20447;-78
2021/01/11 08:37:21;;;;;;;29.83;19.20;;;-3.80;76.70;;;;;;5055371;28;20442;-78
2021/01/11 08:39:55;;;;;;;33.83;20.00;;;-3.80;75.30;;;;;;5058770;28;20454;-76
2021/01/11 08:42:22;;;;;;;37.70;24.60;;;-3.70;75.80;;;;;;5050936;28;20485;-75
2021/01/11 08:44:52;;;;;;;41.13;27.23;;;-4.00;73.90;;;;;;5045847;28;20849;-74
2021/01/11 08:47:27;;;;;;;39.55;25.42;;;-3.90;75.20;;;;;;5045377;28;20464;-79
2021/01/11 08:50:00;;;;;;;37.78;26.40;;;-3.80;75.20;;;;;;5048464;28;20443;-75
2021/01/11 08:52:29;;;;;;;37.30;23.58;;;-3.70;74.60;;;;;;5045963;28;20526;-77
2021/01/11 08:54:56;;;;;;;33.37;21.30;;;-3.70;74.10;;;;;;5054354;28;20210;-78
2021/01/11 08:57:27;;;;;;;37.60;20.07;;;-3.70;74.20;;;;;;5052582;28;20453;-78
2021/01/11 08:59:54;;;;;;;36.43;21.83;;;-3.70;75.40;;;;;;5050946;28;20557;-77
2021/01/11 09:02:26;;;;;;;29.27;18.70;;;-3.80;75.40;;;;;;5050302;28;21082;-78
2021/01/11 09:04:53;;;;;;;34.00;19.97;;;-3.70;74.90;;;;;;5054098;28;20450;-75
2021/01/11 09:07:31;;;;;;;32.87;19.43;;;-3.70;73.80;;;;;;5043910;28;20457;-76
2021/01/11 09:09:59;;;;;;;37.03;18.50;;;-3.70;73.90;;;;;;5058093;28;20480;-75
2021/01/11 09:12:34;;;;;;;30.93;18.30;;;-3.70;73.10;;;;;;5049278;28;20527;-75
2021/01/11 09:15:01;;;;;;;27.50;19.60;;;-3.70;73.60;;;;;;5048559;28;20450;-75
2021/01/11 09:17:30;;;;;;;35.47;17.93;;;-3.40;73.40;;;;;;5042652;28;20790;-76
2021/01/11 09:20:00;;;;;;;28.03;18.40;;;-3.40;72.10;;;;;;5047969;28;20470;-75
2021/01/11 09:22:33;;;;;;;28.52;19.10;;;-3.40;72.10;;;;;;5050595;28;20463;-79
2021/01/11 09:25:00;;;;;;;27.83;21.90;;;-3.40;71.30;;;;;;5051659;28;20503;-73
2021/01/11 09:27:27;;;;;;;34.20;21.13;;;-3.30;71.00;;;;;;5043790;28;20203;-74
2021/01/11 09:29:54;;;;;;;22.97;16.90;;;-3.30;70.20;;;;;;5048043;28;20976;-72
2021/01/11 09:32:23;;;;;;;27.23;17.57;;;-3.30;70.90;;;;;;5045934;28;20563;-74
2021/01/11 09:34:51;;;;;;;30.45;22.83;;;-3.20;70.50;;;;;;5051346;28;20450;-78
2021/01/11 09:37:18;;;;;;;28.07;20.60;;;-3.10;70.00;;;;;;5055100;28;20201;-77
2021/01/11 09:39:44;;;;;;;32.83;19.60;;;-2.90;69.50;;;;;;5048149;28;20537;-77
2021/01/11 09:42:14;;;;;;;26.93;18.13;;;-2.90;69.10;;;;;;5050457;28;20466;-80
2021/01/11 09:44:42;;;;;;;25.50;17.10;;;-3.10;68.90;;;;;;5047589;28;20484;-73
2021/01/11 09:47:11;;;;;;;28.47;17.50;;;-2.90;69.40;;;;;;5046684;28;20469;-74
2021/01/11 09:49:37;;;;;;;28.43;17.17;;;-2.90;69.40;;;;;;5043903;28;20545;-72
2021/01/11 09:52:05;;;;;;;27.63;17.30;;;-2.90;68.70;;;;;;5045174;28;21026;-73
2021/01/11 09:54:35;;;;;;;24.60;17.00;;;-2.80;69.40;;;;;;5045302;28;20448;-73
2021/01/11 09:57:01;;;;;;;29.37;17.53;;;-2.70;69.20;;;;;;5045806;28;20443;-73
2021/01/11 09:59:30;;;;;;;28.27;18.00;;;-2.60;69.60;;;;;;5039868;28;21133;-73
2021/01/11 10:01:57;;;;;;;34.40;20.70;;;-2.60;69.00;;;;;;5043234;28;20447;-73
2021/01/11 10:04:24;;;;;;;33.90;20.67;;;-2.70;69.10;;;;;;5043342;28;20987;-72
2021/01/11 10:06:53;;;;;;;35.13;25.88;;;-2.70;69.30;;;;;;5036624;28;20482;-76
2021/01/11 10:09:23;;;;;;;31.60;21.40;;;-2.70;69.30;;;;;;5045228;28;20293;-73
2021/01/11 10:11:52;;;;;;;31.30;20.87;;;-2.50;69.20;;;;;;5043459;28;20454;-74
2021/01/11 10:14:19;;;;;;;29.30;19.93;;;-2.40;69.00;;;;;;5043080;28;20549;-74
2021/01/11 10:16:49;;;;;;;31.97;20.57;;;-2.40;69.30;;;;;;5048266;28;20564;-75
2021/01/11 10:19:17;;;;;;;37.77;20.70;;;-2.40;68.90;;;;;;5041338;28;20496;-75
2021/01/11 10:21:46;;;;;;;35.10;21.77;;;-2.60;69.10;;;;;;5052224;28;20441;-75
2021/01/11 10:24:14;;;;;;;30.83;18.57;;;-2.60;69.30;;;;;;5044691;28;20574;-75
2021/01/11 10:26:43;;;;;;;33.30;20.70;;;-2.60;69.50;;;;;;5045728;28;20441;-75
2021/01/11 10:29:10;;;;;;;34.53;26.17;;;-2.30;69.80;;;;;;5047417;28;20450;-74
2021/01/11 10:31:37;;;;;;;31.90;22.30;;;-2.00;69.00;;;;;;5046226;28;20453;-76
2021/01/11 10:34:04;;;;;;;32.40;20.97;;;-2.00;68.20;;;;;;5046592;28;20446;-77
2021/01/11 10:36:37;;;;;;;31.87;20.43;;;-2.00;67.90;;;;;;5052860;28;20468;-80
2021/01/11 10:39:04;;;;;;;32.97;19.97;;;-1.90;67.90;;;;;;5061275;28;20469;-80
2021/01/11 10:41:32;;;;;;;26.83;18.43;;;-1.70;68.10;;;;;;5049763;28;20464;-77
2021/01/11 10:44:02;;;;;;;32.87;20.77;;;-1.40;68.30;;;;;;5058155;28;20477;-78
2021/01/11 10:46:29;;;;;;;32.80;21.27;;;-1.40;67.90;;;;;;5051708;28;20453;-76
2021/01/11 10:48:57;;;;;;;35.40;22.83;;;-1.40;68.00;;;;;;5053856;28;20547;-78
2021/01/11 10:51:23;;;;;;;33.90;21.73;;;-1.20;67.40;;;;;;5046252;28;20457;-78
2021/01/11 10:53:51;;;;;;;32.93;21.33;;;-1.00;67.40;;;;;;5050711;28;20447;-77
2021/01/11 10:56:19;;;;;;;37.00;23.37;;;-0.80;67.50;;;;;;5057868;28;20483;-79
2021/01/11 10:58:46;;;;;;;33.40;21.77;;;-1.10;66.60;;;;;;5063800;28;20473;-78
2021/01/11 11:01:15;;;;;;;32.23;21.00;;;-0.90;67.30;;;;;;5057312;28;20848;-77
2021/01/11 11:03:42;;;;;;;33.73;21.60;;;-0.60;66.80;;;;;;5055221;28;20981;-77
2021/01/11 11:06:09;;;;;;;37.50;23.00;;;-0.60;66.50;;;;;;5058105;28;20566;-78
2021/01/11 11:08:39;;;;;;;29.23;20.70;;;-0.60;66.90;;;;;;5056239;28;20444;-78
2021/01/11 11:11:06;;;;;;;33.10;21.33;;;-0.70;66.90;;;;;;5060984;28;20485;-76
2021/01/11 11:13:32;;;;;;;35.30;22.10;;;-0.60;67.20;;;;;;5056472;28;20498;-78
2021/01/11 11:15:59;;;;;;;27.37;18.33;;;-0.60;66.80;;;;;;5057516;28;21039;-79
2021/01/11 11:18:27;;;;;;;27.33;18.23;;;-0.50;66.30;;;;;;5054719;28;20500;-78
2021/01/11 11:20:54;;;;;;;29.60;19.60;;;-0.60;66.00;;;;;;5061722;28;20932;-78
2021/01/11 11:23:20;;;;;;;28.90;20.17;;;-0.50;66.10;;;;;;5062981;28;20453;-79
2021/01/11 11:25:47;;;;;;;29.07;18.77;;;-0.50;66.20;;;;;;5062161;28;20451;-78
2021/01/11 11:28:16;;;;;;;32.70;19.40;;;-0.70;65.70;;;;;;5054988;28;20630;-79
2021/01/11 11:30:43;;;;;;;38.60;21.40;;;-0.80;65.60;;;;;;5057811;28;20462;-78
2021/01/11 11:33:10;;;;;;;29.90;20.53;;;-0.90;65.90;;;;;;5054685;28;20553;-78
2021/01/11 11:35:41;;;;;;;30.90;19.37;;;-1.00;66.10;;;;;;5052669;28;20439;-78
2021/01/11 11:38:08;;;;;;;31.10;20.13;;;-1.00;66.30;;;;;;5065643;28;20470;-78
2021/01/11 11:40:34;;;;;;;29.40;20.27;;;-1.20;66.40;;;;;;5061678;28;20550;-78
2021/01/11 11:43:04;;;;;;;28.07;19.43;;;-1.20;66.60;;;;;;5055766;28;20459;-78
2021/01/11 11:45:31;;;;;;;34.10;20.80;;;-1.20;66.40;;;;;;5055737;28;20450;-78
2021/01/11 11:47:59;;;;;;;30.30;20.90;;;-1.30;66.60;;;;;;5052844;28;20484;-78
2021/01/11 11:50:26;;;;;;;35.83;21.40;;;-1.00;67.20;;;;;;5077764;28;20477;-78
2021/01/11 11:52:54;;;;;;;30.27;20.30;;;-1.00;67.00;;;;;;5070666;28;20466;-79
2021/01/11 11:55:22;;;;;;;32.80;20.17;;;-1.20;66.20;;;;;;5059152;28;20472;-79
2021/01/11 11:57:48;;;;;;;30.60;20.03;;;-0.90;66.60;;;;;;5051913;28;20458;-79
2021/01/11 12:00:17;;;;;;;31.20;20.13;;;-0.90;66.60;;;;;;5057739;28;20450;-78
2021/01/11 12:02:44;;;;;;;32.47;20.30;;;-0.70;66.90;;;;;;5055092;28;20503;-78
2021/01/11 12:05:13;;;;;;;29.00;19.43;;;-0.50;66.20;;;;;;5053966;28;20473;-79
2021/01/11 12:07:42;;;;;;;28.07;19.53;;;-0.40;66.80;;;;;;5052631;28;20447;-78
2021/01/11 12:10:12;;;;;;;30.07;19.07;;;-0.40;66.40;;;;;;5053105;28;20525;-79
2021/01/11 12:12:38;;;;;;;27.77;19.10;;;-0.20;66.10;;;;;;5057943;28;20514;-79
2021/01/11 12:15:07;;;;;;;37.07;20.77;;;-0.20;66.00;;;;;;5052718;28;20459;-79
2021/01/11 12:17:36;;;;;;;32.83;18.40;;;-0.20;65.60;;;;;;5054562;28;20443;-78
2021/01/11 12:20:04;;;;;;;32.90;18.20;;;-0.10;65.80;;;;;;5056621;28;20537;-79
2021/01/11 12:22:32;;;;;;;27.70;19.10;;;-0.20;65.90;;;;;;5055417;28;20444;-79
2021/01/11 12:24:58;;;;;;;29.10;19.67;;;-0.30;65.80;;;;;;5049823;28;20480;-79
2021/01/11 12:27:26;;;;;;;30.83;19.37;;;-0.50;66.00;;;;;;5059126;28;20472;-78
2021/01/11 12:29:53;;;;;;;30.03;19.90;;;-0.80;66.70;;;;;;5050607;28;20450;-80
2021/01/11 12:32:19;;;;;;;30.17;21.47;;;-0.90;66.90;;;;;;5063541;28;20451;-80
2021/01/11 12:34:46;;;;;;;28.80;20.27;;;-1.00;66.70;;;;;;5056884;28;20458;-79
2021/01/11 12:37:14;;;;;;;32.80;20.30;;;-1.10;67.40;;;;;;5055126;28;20450;-80
2021/01/11 12:39:42;;;;;;;31.57;19.50;;;-1.00;67.40;;;;;;5047336;28;20476;-80